sensor_id;sensor_type;location;lat;lon;timestamp;P1;durP1;ratioP1;P2;durP2;ratioP2
7377;SDS011;3730;50.856;12.776;2022-10-16T00:00:34;0.53;;;0.53;;
7377;SDS011;3730;50.856;12.776;2022-10-16T00:03:00;0.60;;;0.60;;
7377;SDS011;3730;50.856;12.776;2022-10-16T00:05:26;2.77;;;0.83;;
7377;SDS011;3730;50.856;12.776;2022-10-16T00:07:52;0.60;;;0.60;;
7377;SDS011;3730;50.856;12.776;2022-10-16T00:10:18;0.77;;;0.50;;
7377;SDS011;3730;50.856;12.776;2022-10-16T00:12:44;0.40;;;0.37;;
7377;SDS011;3730;50.856;12.776;2022-10-16T00:15:11;0.50;;;0.50;;
7377;SDS011;3730;50.856;12.776;2022-10-16T00:17:37;0.30;;;0.30;;
7377;SDS011;3730;50.856;12.776;2022-10-16T00:20:03;0.50;;;0.50;;
7377;SDS011;3730;50.856;12.776;2022-10-16T00:22:29;0.50;;;0.50;;
7377;SDS011;3730;50.856;12.776;2022-10-16T00:24:55;0.80;;;0.60;;
7377;SDS011;3730;50.856;12.776;2022-10-16T00:27:21;0.80;;;0.50;;
7377;SDS011;3730;50.856;12.776;2022-10-16T00:29:50;1.90;;;0.53;;
7377;SDS011;3730;50.856;12.776;2022-10-16T00:32:17;1.30;;;0.60;;
7377;SDS011;3730;50.856;12.776;2022-10-16T00:34:43;0.47;;;0.47;;
7377;SDS011;3730;50.856;12.776;2022-10-16T00:37:09;0.50;;;0.50;;
7377;SDS011;3730;50.856;12.776;2022-10-16T00:39:35;0.47;;;0.47;;
7377;SDS011;3730;50.856;12.776;2022-10-16T00:42:01;0.40;;;0.40;;
7377;SDS011;3730;50.856;12.776;2022-10-16T00:47:13;0.40;;;0.33;;
7377;SDS011;3730;50.856;12.776;2022-10-16T00:49:41;0.40;;;0.40;;
7377;SDS011;3730;50.856;12.776;2022-10-16T00:52:07;0.50;;;0.40;;
7377;SDS011;3730;50.856;12.776;2022-10-16T00:54:33;0.93;;;0.60;;
7377;SDS011;3730;50.856;12.776;2022-10-16T00:57:00;0.67;;;0.60;;
7377;SDS011;3730;50.856;12.776;2022-10-16T00:59:28;0.40;;;0.40;;
7377;SDS011;3730;50.856;12.776;2022-10-16T01:01:55;0.30;;;0.30;;
7377;SDS011;3730;50.856;12.776;2022-10-16T01:04:21;0.50;;;0.50;;
7377;SDS011;3730;50.856;12.776;2022-10-16T01:09:22;0.30;;;0.30;;
7377;SDS011;3730;50.856;12.776;2022-10-16T01:11:57;0.43;;;0.43;;
7377;SDS011;3730;50.856;12.776;2022-10-16T01:14:29;1.27;;;0.40;;
7377;SDS011;3730;50.856;12.776;2022-10-16T01:17:02;0.80;;;0.60;;
7377;SDS011;3730;50.856;12.776;2022-10-16T01:19:47;0.50;;;0.50;;
7377;SDS011;3730;50.856;12.776;2022-10-16T01:22:16;0.50;;;0.50;;
7377;SDS011;3730;50.856;12.776;2022-10-16T01:24:46;0.53;;;0.53;;
7377;SDS011;3730;50.856;12.776;2022-10-16T01:27:19;0.80;;;0.60;;
7377;SDS011;3730;50.856;12.776;2022-10-16T01:29:52;0.73;;;0.63;;
7377;SDS011;3730;50.856;12.776;2022-10-16T01:32:23;0.33;;;0.33;;
7377;SDS011;3730;50.856;12.776;2022-10-16T01:34:51;0.70;;;0.50;;
7377;SDS011;3730;50.856;12.776;2022-10-16T01:37:21;0.50;;;0.50;;
7377;SDS011;3730;50.856;12.776;2022-10-16T01:39:48;0.53;;;0.53;;
7377;SDS011;3730;50.856;12.776;2022-10-16T01:42:19;0.67;;;0.67;;
7377;SDS011;3730;50.856;12.776;2022-10-16T01:44:46;1.73;;;0.67;;
7377;SDS011;3730;50.856;12.776;2022-10-16T01:47:13;0.70;;;0.70;;
7377;SDS011;3730;50.856;12.776;2022-10-16T01:49:40;1.80;;;0.50;;
7377;SDS011;3730;50.856;12.776;2022-10-16T01:52:07;0.70;;;0.70;;
7377;SDS011;3730;50.856;12.776;2022-10-16T01:54:35;2.27;;;0.80;;
7377;SDS011;3730;50.856;12.776;2022-10-16T01:57:03;0.97;;;0.60;;
7377;SDS011;3730;50.856;12.776;2022-10-16T01:59:31;0.70;;;0.70;;
7377;SDS011;3730;50.856;12.776;2022-10-16T02:02:00;2.20;;;0.70;;
7377;SDS011;3730;50.856;12.776;2022-10-16T02:04:30;1.07;;;0.70;;
7377;SDS011;3730;50.856;12.776;2022-10-16T02:06:57;0.83;;;0.60;;
7377;SDS011;3730;50.856;12.776;2022-10-16T02:09:23;1.60;;;0.80;;
7377;SDS011;3730;50.856;12.776;2022-10-16T02:11:50;0.60;;;0.60;;
7377;SDS011;3730;50.856;12.776;2022-10-16T02:14:16;0.97;;;0.60;;
7377;SDS011;3730;50.856;12.776;2022-10-16T02:16:46;0.70;;;0.70;;
7377;SDS011;3730;50.856;12.776;2022-10-16T02:19:12;0.73;;;0.70;;
7377;SDS011;3730;50.856;12.776;2022-10-16T02:21:41;0.83;;;0.70;;
7377;SDS011;3730;50.856;12.776;2022-10-16T02:24:20;2.03;;;1.00;;
7377;SDS011;3730;50.856;12.776;2022-10-16T02:26:50;1.83;;;0.70;;
7377;SDS011;3730;50.856;12.776;2022-10-16T02:29:17;0.70;;;0.70;;
7377;SDS011;3730;50.856;12.776;2022-10-16T02:31:46;0.90;;;0.90;;
7377;SDS011;3730;50.856;12.776;2022-10-16T02:34:14;0.93;;;0.93;;
7377;SDS011;3730;50.856;12.776;2022-10-16T02:36:41;2.33;;;0.93;;
7377;SDS011;3730;50.856;12.776;2022-10-16T02:39:08;0.80;;;0.80;;
7377;SDS011;3730;50.856;12.776;2022-10-16T02:41:35;0.93;;;0.90;;
7377;SDS011;3730;50.856;12.776;2022-10-16T02:44:01;1.00;;;1.00;;
7377;SDS011;3730;50.856;12.776;2022-10-16T02:46:27;1.90;;;1.00;;
7377;SDS011;3730;50.856;12.776;2022-10-16T02:48:53;0.90;;;0.80;;
7377;SDS011;3730;50.856;12.776;2022-10-16T02:51:19;1.67;;;0.90;;
7377;SDS011;3730;50.856;12.776;2022-10-16T02:53:45;4.57;;;0.83;;
7377;SDS011;3730;50.856;12.776;2022-10-16T02:56:11;1.57;;;0.93;;
7377;SDS011;3730;50.856;12.776;2022-10-16T02:58:37;1.00;;;1.00;;
7377;SDS011;3730;50.856;12.776;2022-10-16T03:01:03;0.80;;;0.80;;
7377;SDS011;3730;50.856;12.776;2022-10-16T03:03:29;0.80;;;0.80;;
7377;SDS011;3730;50.856;12.776;2022-10-16T03:05:55;0.60;;;0.60;;
7377;SDS011;3730;50.856;12.776;2022-10-16T03:08:21;0.93;;;0.93;;
7377;SDS011;3730;50.856;12.776;2022-10-16T03:10:50;1.00;;;0.80;;
7377;SDS011;3730;50.856;12.776;2022-10-16T03:13:15;1.73;;;0.90;;
7377;SDS011;3730;50.856;12.776;2022-10-16T03:15:42;1.37;;;0.90;;
7377;SDS011;3730;50.856;12.776;2022-10-16T03:18:08;0.57;;;0.57;;
7377;SDS011;3730;50.856;12.776;2022-10-16T03:20:34;0.83;;;0.70;;
7377;SDS011;3730;50.856;12.776;2022-10-16T03:23:00;0.60;;;0.60;;
7377;SDS011;3730;50.856;12.776;2022-10-16T03:25:27;0.70;;;0.70;;
7377;SDS011;3730;50.856;12.776;2022-10-16T03:27:53;1.63;;;0.80;;
7377;SDS011;3730;50.856;12.776;2022-10-16T03:30:19;0.97;;;0.73;;
7377;SDS011;3730;50.856;12.776;2022-10-16T03:32:45;0.70;;;0.70;;
7377;SDS011;3730;50.856;12.776;2022-10-16T03:35:11;1.90;;;0.70;;
7377;SDS011;3730;50.856;12.776;2022-10-16T03:37:38;0.70;;;0.70;;
7377;SDS011;3730;50.856;12.776;2022-10-16T03:40:04;0.87;;;0.80;;
7377;SDS011;3730;50.856;12.776;2022-10-16T03:42:30;1.23;;;0.50;;
7377;SDS011;3730;50.856;12.776;2022-10-16T03:44:56;0.70;;;0.70;;
7377;SDS011;3730;50.856;12.776;2022-10-16T03:47:22;2.70;;;0.70;;
7377;SDS011;3730;50.856;12.776;2022-10-16T03:49:49;1.60;;;0.57;;
7377;SDS011;3730;50.856;12.776;2022-10-16T03:52:15;1.33;;;0.70;;
7377;SDS011;3730;50.856;12.776;2022-10-16T03:54:41;0.50;;;0.50;;
7377;SDS011;3730;50.856;12.776;2022-10-16T03:57:07;0.80;;;0.50;;
7377;SDS011;3730;50.856;12.776;2022-10-16T03:59:33;1.77;;;0.53;;
7377;SDS011;3730;50.856;12.776;2022-10-16T04:01:59;0.50;;;0.50;;
7377;SDS011;3730;50.856;12.776;2022-10-16T04:04:25;0.70;;;0.50;;
7377;SDS011;3730;50.856;12.776;2022-10-16T04:06:51;0.70;;;0.60;;
7377;SDS011;3730;50.856;12.776;2022-10-16T04:09:17;1.33;;;0.70;;
7377;SDS011;3730;50.856;12.776;2022-10-16T04:11:43;0.93;;;0.60;;
7377;SDS011;3730;50.856;12.776;2022-10-16T04:14:09;0.60;;;0.50;;
7377;SDS011;3730;50.856;12.776;2022-10-16T04:16:35;0.50;;;0.43;;
7377;SDS011;3730;50.856;12.776;2022-10-16T04:19:01;0.40;;;0.40;;
7377;SDS011;3730;50.856;12.776;2022-10-16T04:21:27;1.70;;;0.60;;
7377;SDS011;3730;50.856;12.776;2022-10-16T04:23:53;0.70;;;0.70;;
7377;SDS011;3730;50.856;12.776;2022-10-16T04:26:19;0.53;;;0.53;;
7377;SDS011;3730;50.856;12.776;2022-10-16T04:28:45;0.60;;;0.60;;
7377;SDS011;3730;50.856;12.776;2022-10-16T04:31:11;0.60;;;0.60;;
7377;SDS011;3730;50.856;12.776;2022-10-16T04:33:37;2.10;;;0.60;;
7377;SDS011;3730;50.856;12.776;2022-10-16T04:36:03;0.53;;;0.53;;
7377;SDS011;3730;50.856;12.776;2022-10-16T04:38:29;0.87;;;0.50;;
7377;SDS011;3730;50.856;12.776;2022-10-16T04:40:55;0.60;;;0.60;;
7377;SDS011;3730;50.856;12.776;2022-10-16T04:43:21;0.40;;;0.40;;
7377;SDS011;3730;50.856;12.776;2022-10-16T04:45:48;0.27;;;0.27;;
7377;SDS011;3730;50.856;12.776;2022-10-16T04:48:15;0.50;;;0.50;;
7377;SDS011;3730;50.856;12.776;2022-10-16T04:50:41;2.57;;;0.60;;
7377;SDS011;3730;50.856;12.776;2022-10-16T04:53:07;1.13;;;0.43;;
7377;SDS011;3730;50.856;12.776;2022-10-16T04:55:33;2.63;;;0.67;;
7377;SDS011;3730;50.856;12.776;2022-10-16T04:58:00;2.97;;;0.50;;
7377;SDS011;3730;50.856;12.776;2022-10-16T05:00:26;1.60;;;0.60;;
7377;SDS011;3730;50.856;12.776;2022-10-16T05:02:52;1.03;;;0.50;;
7377;SDS011;3730;50.856;12.776;2022-10-16T05:05:19;0.80;;;0.43;;
7377;SDS011;3730;50.856;12.776;2022-10-16T05:07:46;0.53;;;0.53;;
7377;SDS011;3730;50.856;12.776;2022-10-16T05:10:12;0.50;;;0.50;;
7377;SDS011;3730;50.856;12.776;2022-10-16T05:12:38;2.90;;;0.67;;
7377;SDS011;3730;50.856;12.776;2022-10-16T05:15:04;0.83;;;0.50;;
7377;SDS011;3730;50.856;12.776;2022-10-16T05:17:30;0.50;;;0.50;;
7377;SDS011;3730;50.856;12.776;2022-10-16T05:19:56;0.63;;;0.63;;
7377;SDS011;3730;50.856;12.776;2022-10-16T05:22:22;0.77;;;0.30;;
7377;SDS011;3730;50.856;12.776;2022-10-16T05:24:48;0.47;;;0.47;;
7377;SDS011;3730;50.856;12.776;2022-10-16T05:27:14;3.50;;;0.33;;
7377;SDS011;3730;50.856;12.776;2022-10-16T05:29:47;0.40;;;0.40;;
7377;SDS011;3730;50.856;12.776;2022-10-16T05:32:17;0.30;;;0.30;;
7377;SDS011;3730;50.856;12.776;2022-10-16T05:34:43;0.30;;;0.30;;
7377;SDS011;3730;50.856;12.776;2022-10-16T05:37:10;0.47;;;0.30;;
7377;SDS011;3730;50.856;12.776;2022-10-16T05:39:36;0.57;;;0.50;;
7377;SDS011;3730;50.856;12.776;2022-10-16T05:42:02;0.30;;;0.30;;
7377;SDS011;3730;50.856;12.776;2022-10-16T05:44:29;0.50;;;0.30;;
7377;SDS011;3730;50.856;12.776;2022-10-16T05:46:55;0.37;;;0.37;;
7377;SDS011;3730;50.856;12.776;2022-10-16T05:49:21;0.83;;;0.50;;
7377;SDS011;3730;50.856;12.776;2022-10-16T05:51:47;0.37;;;0.30;;
7377;SDS011;3730;50.856;12.776;2022-10-16T05:54:13;0.30;;;0.30;;
7377;SDS011;3730;50.856;12.776;2022-10-16T05:56:39;0.63;;;0.50;;
7377;SDS011;3730;50.856;12.776;2022-10-16T05:59:05;1.17;;;0.30;;
7377;SDS011;3730;50.856;12.776;2022-10-16T06:01:31;0.30;;;0.30;;
7377;SDS011;3730;50.856;12.776;2022-10-16T06:03:57;0.43;;;0.40;;
7377;SDS011;3730;50.856;12.776;2022-10-16T06:06:24;0.30;;;0.30;;
7377;SDS011;3730;50.856;12.776;2022-10-16T06:08:51;2.93;;;0.40;;
7377;SDS011;3730;50.856;12.776;2022-10-16T06:11:18;0.33;;;0.33;;
7377;SDS011;3730;50.856;12.776;2022-10-16T06:13:44;0.20;;;0.20;;
7377;SDS011;3730;50.856;12.776;2022-10-16T06:16:11;0.40;;;0.40;;
7377;SDS011;3730;50.856;12.776;2022-10-16T06:18:37;0.30;;;0.30;;
7377;SDS011;3730;50.856;12.776;2022-10-16T06:21:07;0.30;;;0.30;;
7377;SDS011;3730;50.856;12.776;2022-10-16T06:23:34;0.37;;;0.30;;
7377;SDS011;3730;50.856;12.776;2022-10-16T06:26:07;0.40;;;0.40;;
7377;SDS011;3730;50.856;12.776;2022-10-16T06:28:33;0.37;;;0.37;;
7377;SDS011;3730;50.856;12.776;2022-10-16T06:31:00;0.77;;;0.33;;
7377;SDS011;3730;50.856;12.776;2022-10-16T06:33:26;0.50;;;0.40;;
7377;SDS011;3730;50.856;12.776;2022-10-16T06:35:52;0.40;;;0.40;;
7377;SDS011;3730;50.856;12.776;2022-10-16T06:38:18;1.23;;;0.43;;
7377;SDS011;3730;50.856;12.776;2022-10-16T06:40:44;1.10;;;0.50;;
7377;SDS011;3730;50.856;12.776;2022-10-16T06:43:10;1.47;;;0.50;;
7377;SDS011;3730;50.856;12.776;2022-10-16T06:45:36;2.27;;;0.50;;
7377;SDS011;3730;50.856;12.776;2022-10-16T06:48:02;0.70;;;0.63;;
7377;SDS011;3730;50.856;12.776;2022-10-16T06:50:28;1.00;;;0.90;;
7377;SDS011;3730;50.856;12.776;2022-10-16T06:52:54;1.00;;;0.60;;
7377;SDS011;3730;50.856;12.776;2022-10-16T06:55:20;0.70;;;0.47;;
7377;SDS011;3730;50.856;12.776;2022-10-16T06:57:49;0.50;;;0.50;;
7377;SDS011;3730;50.856;12.776;2022-10-16T07:00:15;0.40;;;0.40;;
7377;SDS011;3730;50.856;12.776;2022-10-16T07:02:41;0.60;;;0.60;;
7377;SDS011;3730;50.856;12.776;2022-10-16T07:05:07;1.67;;;0.70;;
7377;SDS011;3730;50.856;12.776;2022-10-16T07:07:33;1.60;;;0.47;;
7377;SDS011;3730;50.856;12.776;2022-10-16T07:09:59;0.80;;;0.53;;
7377;SDS011;3730;50.856;12.776;2022-10-16T07:12:25;0.70;;;0.70;;
7377;SDS011;3730;50.856;12.776;2022-10-16T07:14:51;3.30;;;0.90;;
7377;SDS011;3730;50.856;12.776;2022-10-16T07:17:17;0.70;;;0.70;;
7377;SDS011;3730;50.856;12.776;2022-10-16T07:19:44;4.20;;;1.00;;
7377;SDS011;3730;50.856;12.776;2022-10-16T07:22:10;1.20;;;0.70;;
7377;SDS011;3730;50.856;12.776;2022-10-16T07:24:36;0.80;;;0.80;;
7377;SDS011;3730;50.856;12.776;2022-10-16T07:27:02;2.87;;;0.93;;
7377;SDS011;3730;50.856;12.776;2022-10-16T07:29:28;0.87;;;0.80;;
7377;SDS011;3730;50.856;12.776;2022-10-16T07:31:54;1.73;;;1.00;;
7377;SDS011;3730;50.856;12.776;2022-10-16T07:34:20;0.77;;;0.77;;
7377;SDS011;3730;50.856;12.776;2022-10-16T07:36:49;0.90;;;0.90;;
7377;SDS011;3730;50.856;12.776;2022-10-16T07:39:16;1.07;;;0.87;;
7377;SDS011;3730;50.856;12.776;2022-10-16T07:41:42;0.80;;;0.80;;
7377;SDS011;3730;50.856;12.776;2022-10-16T07:44:08;1.33;;;0.87;;
7377;SDS011;3730;50.856;12.776;2022-10-16T07:46:34;0.80;;;0.80;;
7377;SDS011;3730;50.856;12.776;2022-10-16T07:49:01;1.10;;;1.00;;
7377;SDS011;3730;50.856;12.776;2022-10-16T07:51:27;0.87;;;0.87;;
7377;SDS011;3730;50.856;12.776;2022-10-16T07:53:53;1.00;;;1.00;;
7377;SDS011;3730;50.856;12.776;2022-10-16T07:56:20;1.83;;;1.00;;
7377;SDS011;3730;50.856;12.776;2022-10-16T07:58:46;2.00;;;0.80;;
7377;SDS011;3730;50.856;12.776;2022-10-16T08:01:15;1.20;;;1.10;;
7377;SDS011;3730;50.856;12.776;2022-10-16T08:03:45;2.93;;;0.97;;
7377;SDS011;3730;50.856;12.776;2022-10-16T08:06:11;2.43;;;1.30;;
7377;SDS011;3730;50.856;12.776;2022-10-16T08:08:37;0.70;;;0.70;;
7377;SDS011;3730;50.856;12.776;2022-10-16T08:11:03;1.03;;;0.90;;
7377;SDS011;3730;50.856;12.776;2022-10-16T08:13:30;2.43;;;1.20;;
7377;SDS011;3730;50.856;12.776;2022-10-16T08:15:56;1.00;;;1.00;;
7377;SDS011;3730;50.856;12.776;2022-10-16T08:18:22;0.83;;;0.83;;
7377;SDS011;3730;50.856;12.776;2022-10-16T08:20:48;1.20;;;0.80;;
7377;SDS011;3730;50.856;12.776;2022-10-16T08:23:20;2.50;;;1.10;;
7377;SDS011;3730;50.856;12.776;2022-10-16T08:25:46;1.27;;;0.93;;
7377;SDS011;3730;50.856;12.776;2022-10-16T08:28:12;1.03;;;0.93;;
7377;SDS011;3730;50.856;12.776;2022-10-16T08:30:38;1.47;;;1.10;;
7377;SDS011;3730;50.856;12.776;2022-10-16T08:33:04;3.13;;;1.10;;
7377;SDS011;3730;50.856;12.776;2022-10-16T08:35:31;1.10;;;1.00;;
7377;SDS011;3730;50.856;12.776;2022-10-16T08:37:57;1.13;;;1.00;;
7377;SDS011;3730;50.856;12.776;2022-10-16T08:40:31;3.03;;;1.00;;
7377;SDS011;3730;50.856;12.776;2022-10-16T08:50:26;0.90;;;0.90;;
7377;SDS011;3730;50.856;12.776;2022-10-16T08:52:53;1.80;;;0.70;;
7377;SDS011;3730;50.856;12.776;2022-10-16T08:57:54;3.10;;;0.80;;
7377;SDS011;3730;50.856;12.776;2022-10-16T09:00:21;1.10;;;1.00;;
7377;SDS011;3730;50.856;12.776;2022-10-16T09:13:02;1.23;;;0.70;;
7377;SDS011;3730;50.856;12.776;2022-10-16T09:15:45;1.07;;;0.70;;
7377;SDS011;3730;50.856;12.776;2022-10-16T09:18:21;0.80;;;0.80;;
7377;SDS011;3730;50.856;12.776;2022-10-16T09:20:49;0.80;;;0.80;;
7377;SDS011;3730;50.856;12.776;2022-10-16T09:23:27;1.30;;;1.00;;
7377;SDS011;3730;50.856;12.776;2022-10-16T09:25:54;0.70;;;0.70;;
7377;SDS011;3730;50.856;12.776;2022-10-16T09:28:21;0.80;;;0.80;;
7377;SDS011;3730;50.856;12.776;2022-10-16T09:30:47;1.20;;;0.90;;
7377;SDS011;3730;50.856;12.776;2022-10-16T09:33:14;0.97;;;0.83;;
7377;SDS011;3730;50.856;12.776;2022-10-16T09:35:43;1.50;;;0.90;;
7377;SDS011;3730;50.856;12.776;2022-10-16T09:38:29;1.00;;;0.70;;
7377;SDS011;3730;50.856;12.776;2022-10-16T09:40:57;1.20;;;0.80;;
7377;SDS011;3730;50.856;12.776;2022-10-16T09:48:58;1.13;;;0.90;;
7377;SDS011;3730;50.856;12.776;2022-10-16T09:51:26;1.87;;;0.80;;
7377;SDS011;3730;50.856;12.776;2022-10-16T09:54:16;2.10;;;0.70;;
7377;SDS011;3730;50.856;12.776;2022-10-16T09:56:42;0.70;;;0.70;;
7377;SDS011;3730;50.856;12.776;2022-10-16T09:59:20;4.70;;;1.30;;
7377;SDS011;3730;50.856;12.776;2022-10-16T10:01:50;0.70;;;0.70;;
7377;SDS011;3730;50.856;12.776;2022-10-16T10:04:17;1.00;;;0.83;;
7377;SDS011;3730;50.856;12.776;2022-10-16T10:06:51;2.77;;;0.70;;
7377;SDS011;3730;50.856;12.776;2022-10-16T10:09:22;1.37;;;0.90;;
7377;SDS011;3730;50.856;12.776;2022-10-16T10:11:57;2.43;;;0.90;;
7377;SDS011;3730;50.856;12.776;2022-10-16T10:14:38;1.33;;;1.00;;
7377;SDS011;3730;50.856;12.776;2022-10-16T10:19:55;13.00;;;1.50;;
7377;SDS011;3730;50.856;12.776;2022-10-16T10:33:37;2.30;;;1.07;;
7377;SDS011;3730;50.856;12.776;2022-10-16T10:39:07;0.97;;;0.97;;
7377;SDS011;3730;50.856;12.776;2022-10-16T10:47:13;2.60;;;1.13;;
7377;SDS011;3730;50.856;12.776;2022-10-16T10:55:00;2.03;;;1.33;;
7377;SDS011;3730;50.856;12.776;2022-10-16T11:00:57;1.47;;;1.20;;
7377;SDS011;3730;50.856;12.776;2022-10-16T11:06:00;1.00;;;0.83;;
7377;SDS011;3730;50.856;12.776;2022-10-16T11:08:36;2.10;;;1.10;;
7377;SDS011;3730;50.856;12.776;2022-10-16T11:11:04;2.83;;;1.20;;
7377;SDS011;3730;50.856;12.776;2022-10-16T11:13:36;1.10;;;1.00;;
7377;SDS011;3730;50.856;12.776;2022-10-16T11:16:27;1.63;;;1.10;;
7377;SDS011;3730;50.856;12.776;2022-10-16T11:21:37;2.53;;;0.80;;
7377;SDS011;3730;50.856;12.776;2022-10-16T11:24:08;2.37;;;1.17;;
7377;SDS011;3730;50.856;12.776;2022-10-16T11:26:38;0.80;;;0.80;;
7377;SDS011;3730;50.856;12.776;2022-10-16T11:29:05;2.80;;;1.13;;
7377;SDS011;3730;50.856;12.776;2022-10-16T11:31:41;0.77;;;0.73;;
7377;SDS011;3730;50.856;12.776;2022-10-16T11:34:22;4.40;;;1.00;;
7377;SDS011;3730;50.856;12.776;2022-10-16T11:36:56;2.20;;;1.10;;
7377;SDS011;3730;50.856;12.776;2022-10-16T11:39:25;2.40;;;1.80;;
7377;SDS011;3730;50.856;12.776;2022-10-16T11:42:11;1.40;;;1.30;;
7377;SDS011;3730;50.856;12.776;2022-10-16T11:47:26;3.83;;;1.50;;
7377;SDS011;3730;50.856;12.776;2022-10-16T11:49:57;3.40;;;1.30;;
7377;SDS011;3730;50.856;12.776;2022-10-16T11:52:35;2.93;;;1.60;;
7377;SDS011;3730;50.856;12.776;2022-10-16T11:55:12;1.17;;;1.07;;
7377;SDS011;3730;50.856;12.776;2022-10-16T11:57:51;0.87;;;0.87;;
7377;SDS011;3730;50.856;12.776;2022-10-16T12:05:46;0.80;;;0.80;;
7377;SDS011;3730;50.856;12.776;2022-10-16T12:08:27;2.93;;;0.80;;
7377;SDS011;3730;50.856;12.776;2022-10-16T12:10:53;1.80;;;0.80;;
7377;SDS011;3730;50.856;12.776;2022-10-16T12:16:07;1.00;;;0.90;;
7377;SDS011;3730;50.856;12.776;2022-10-16T12:18:46;1.43;;;0.93;;
7377;SDS011;3730;50.856;12.776;2022-10-16T12:21:13;2.93;;;1.47;;
7377;SDS011;3730;50.856;12.776;2022-10-16T12:23:48;2.00;;;1.40;;
7377;SDS011;3730;50.856;12.776;2022-10-16T12:26:25;1.80;;;1.23;;
7377;SDS011;3730;50.856;12.776;2022-10-16T12:28:53;2.97;;;0.90;;
7377;SDS011;3730;50.856;12.776;2022-10-16T12:31:20;0.73;;;0.73;;
7377;SDS011;3730;50.856;12.776;2022-10-16T12:34:21;1.87;;;1.00;;
7377;SDS011;3730;50.856;12.776;2022-10-16T12:36:47;1.63;;;0.63;;
7377;SDS011;3730;50.856;12.776;2022-10-16T12:39:23;1.30;;;0.90;;
7377;SDS011;3730;50.856;12.776;2022-10-16T12:42:03;1.17;;;1.03;;
7377;SDS011;3730;50.856;12.776;2022-10-16T12:44:43;1.03;;;0.80;;
7377;SDS011;3730;50.856;12.776;2022-10-16T12:47:18;2.10;;;0.97;;
7377;SDS011;3730;50.856;12.776;2022-10-16T12:49:49;1.77;;;0.70;;
7377;SDS011;3730;50.856;12.776;2022-10-16T12:52:36;0.70;;;0.70;;
7377;SDS011;3730;50.856;12.776;2022-10-16T12:55:04;2.30;;;1.10;;
7377;SDS011;3730;50.856;12.776;2022-10-16T13:00:32;0.80;;;0.80;;
7377;SDS011;3730;50.856;12.776;2022-10-16T13:03:11;0.70;;;0.70;;
7377;SDS011;3730;50.856;12.776;2022-10-16T13:06:24;0.80;;;0.80;;
7377;SDS011;3730;50.856;12.776;2022-10-16T13:11:29;1.37;;;0.77;;
7377;SDS011;3730;50.856;12.776;2022-10-16T13:19:45;1.30;;;0.83;;
7377;SDS011;3730;50.856;12.776;2022-10-16T13:22:39;0.60;;;0.60;;
7377;SDS011;3730;50.856;12.776;2022-10-16T13:28:10;1.70;;;0.93;;
7377;SDS011;3730;50.856;12.776;2022-10-16T13:30:41;2.10;;;1.20;;
7377;SDS011;3730;50.856;12.776;2022-10-16T13:35:35;0.70;;;0.70;;
7377;SDS011;3730;50.856;12.776;2022-10-16T13:38:05;2.03;;;0.80;;
7377;SDS011;3730;50.856;12.776;2022-10-16T13:43:22;1.40;;;1.20;;
7377;SDS011;3730;50.856;12.776;2022-10-16T13:46:14;1.80;;;1.40;;
7377;SDS011;3730;50.856;12.776;2022-10-16T13:48:41;1.40;;;1.00;;
7377;SDS011;3730;50.856;12.776;2022-10-16T13:53:38;1.80;;;1.10;;
7377;SDS011;3730;50.856;12.776;2022-10-16T13:56:05;2.07;;;0.90;;
7377;SDS011;3730;50.856;12.776;2022-10-16T13:58:33;0.90;;;0.90;;
7377;SDS011;3730;50.856;12.776;2022-10-16T14:01:00;2.50;;;0.93;;
7377;SDS011;3730;50.856;12.776;2022-10-16T14:03:28;0.90;;;0.90;;
7377;SDS011;3730;50.856;12.776;2022-10-16T14:05:56;2.30;;;0.90;;
7377;SDS011;3730;50.856;12.776;2022-10-16T14:08:25;0.60;;;0.60;;
7377;SDS011;3730;50.856;12.776;2022-10-16T14:10:54;1.63;;;0.87;;
7377;SDS011;3730;50.856;12.776;2022-10-16T14:13:25;1.13;;;0.80;;
7377;SDS011;3730;50.856;12.776;2022-10-16T14:16:15;0.77;;;0.70;;
7377;SDS011;3730;50.856;12.776;2022-10-16T14:18:44;0.93;;;0.57;;
7377;SDS011;3730;50.856;12.776;2022-10-16T14:21:14;1.10;;;0.90;;
7377;SDS011;3730;50.856;12.776;2022-10-16T14:23:41;0.50;;;0.50;;
7377;SDS011;3730;50.856;12.776;2022-10-16T14:28:34;2.47;;;0.97;;
7377;SDS011;3730;50.856;12.776;2022-10-16T14:31:02;0.60;;;0.60;;
7377;SDS011;3730;50.856;12.776;2022-10-16T14:33:46;1.57;;;0.70;;
7377;SDS011;3730;50.856;12.776;2022-10-16T14:36:13;0.80;;;0.80;;
7377;SDS011;3730;50.856;12.776;2022-10-16T14:38:41;0.70;;;0.70;;
7377;SDS011;3730;50.856;12.776;2022-10-16T14:41:08;2.03;;;0.67;;
7377;SDS011;3730;50.856;12.776;2022-10-16T14:43:35;1.63;;;0.90;;
7377;SDS011;3730;50.856;12.776;2022-10-16T14:46:05;2.17;;;1.10;;
7377;SDS011;3730;50.856;12.776;2022-10-16T14:48:39;0.97;;;0.70;;
7377;SDS011;3730;50.856;12.776;2022-10-16T14:51:08;0.87;;;0.87;;
7377;SDS011;3730;50.856;12.776;2022-10-16T14:53:38;1.07;;;0.83;;
7377;SDS011;3730;50.856;12.776;2022-10-16T14:56:23;0.90;;;0.80;;
7377;SDS011;3730;50.856;12.776;2022-10-16T14:58:50;0.70;;;0.70;;
7377;SDS011;3730;50.856;12.776;2022-10-16T15:01:17;2.10;;;0.70;;
7377;SDS011;3730;50.856;12.776;2022-10-16T15:03:43;1.17;;;0.70;;
7377;SDS011;3730;50.856;12.776;2022-10-16T15:06:12;2.03;;;1.10;;
7377;SDS011;3730;50.856;12.776;2022-10-16T15:08:39;0.80;;;0.80;;
7377;SDS011;3730;50.856;12.776;2022-10-16T15:11:09;1.20;;;0.77;;
7377;SDS011;3730;50.856;12.776;2022-10-16T15:13:43;1.70;;;0.80;;
7377;SDS011;3730;50.856;12.776;2022-10-16T15:16:13;0.57;;;0.50;;
7377;SDS011;3730;50.856;12.776;2022-10-16T15:18:41;0.77;;;0.50;;
7377;SDS011;3730;50.856;12.776;2022-10-16T15:21:07;0.90;;;0.90;;
7377;SDS011;3730;50.856;12.776;2022-10-16T15:23:33;2.40;;;0.90;;
7377;SDS011;3730;50.856;12.776;2022-10-16T15:25:59;1.77;;;0.80;;
7377;SDS011;3730;50.856;12.776;2022-10-16T15:28:25;1.10;;;0.90;;
7377;SDS011;3730;50.856;12.776;2022-10-16T15:30:52;2.30;;;0.80;;
7377;SDS011;3730;50.856;12.776;2022-10-16T15:33:20;1.20;;;1.00;;
7377;SDS011;3730;50.856;12.776;2022-10-16T15:35:49;2.40;;;1.10;;
7377;SDS011;3730;50.856;12.776;2022-10-16T15:38:16;0.90;;;0.90;;
7377;SDS011;3730;50.856;12.776;2022-10-16T15:40:42;1.13;;;1.03;;
7377;SDS011;3730;50.856;12.776;2022-10-16T15:43:08;1.10;;;1.10;;
7377;SDS011;3730;50.856;12.776;2022-10-16T15:45:35;1.00;;;0.80;;
7377;SDS011;3730;50.856;12.776;2022-10-16T15:48:00;2.37;;;0.90;;
7377;SDS011;3730;50.856;12.776;2022-10-16T15:50:26;1.20;;;1.10;;
7377;SDS011;3730;50.856;12.776;2022-10-16T15:52:52;1.50;;;1.40;;
7377;SDS011;3730;50.856;12.776;2022-10-16T15:55:18;1.77;;;1.67;;
7377;SDS011;3730;50.856;12.776;2022-10-16T15:57:44;2.17;;;1.87;;
7377;SDS011;3730;50.856;12.776;2022-10-16T16:00:11;1.50;;;1.30;;
7377;SDS011;3730;50.856;12.776;2022-10-16T16:02:39;4.20;;;1.83;;
7377;SDS011;3730;50.856;12.776;2022-10-16T16:05:05;2.47;;;2.00;;
7377;SDS011;3730;50.856;12.776;2022-10-16T16:07:36;4.27;;;3.07;;
7377;SDS011;3730;50.856;12.776;2022-10-16T16:10:03;3.87;;;2.97;;
7377;SDS011;3730;50.856;12.776;2022-10-16T16:12:29;3.43;;;2.80;;
7377;SDS011;3730;50.856;12.776;2022-10-16T16:14:55;3.03;;;2.17;;
7377;SDS011;3730;50.856;12.776;2022-10-16T16:17:20;1.60;;;1.50;;
7377;SDS011;3730;50.856;12.776;2022-10-16T16:19:46;1.40;;;1.30;;
7377;SDS011;3730;50.856;12.776;2022-10-16T16:22:12;2.80;;;1.50;;
7377;SDS011;3730;50.856;12.776;2022-10-16T16:24:37;2.80;;;1.40;;
7377;SDS011;3730;50.856;12.776;2022-10-16T16:27:03;1.43;;;1.20;;
7377;SDS011;3730;50.856;12.776;2022-10-16T16:29:29;1.73;;;1.50;;
7377;SDS011;3730;50.856;12.776;2022-10-16T16:31:54;1.87;;;1.30;;
7377;SDS011;3730;50.856;12.776;2022-10-16T16:34:25;2.80;;;1.50;;
7377;SDS011;3730;50.856;12.776;2022-10-16T16:36:51;1.80;;;1.70;;
7377;SDS011;3730;50.856;12.776;2022-10-16T16:39:17;1.93;;;1.83;;
7377;SDS011;3730;50.856;12.776;2022-10-16T16:41:43;2.77;;;1.80;;
7377;SDS011;3730;50.856;12.776;2022-10-16T16:44:10;2.40;;;1.70;;
7377;SDS011;3730;50.856;12.776;2022-10-16T16:46:37;4.70;;;1.70;;
7377;SDS011;3730;50.856;12.776;2022-10-16T16:49:04;3.30;;;1.53;;
7377;SDS011;3730;50.856;12.776;2022-10-16T16:51:31;2.27;;;1.80;;